Etusivu
METAR-TAF:

METAR-TAF

Lentoasemat :

Antwerpenin kansainvälinen lentoasema

Antwerpen, Belgia

Leveyspiiri: 51-12N, Pituuspiiri: 004-28E, korkeus merenpinnasta: 12 m

Tämänhetkinen sää

Tämä raportti tehtiin 31 minuuttia sitten, kello 04.20 UTC
Tuuli 2 kn eri suunnista
Lämpötila -1°C
Kosteus 93%
Ilmanpaine 1036 hPa
Näkyvyys 10 km tai enemmän
ei pilviä alle 1500 m:ssä eikä cumulonimbus-pilviä

METAR: EBAW 240420Z AUTO VRB02KT CAVOK M01/M02 Q1036

Aika: 05:51 (04:51 UTC)

Sääennuste

Tämä raportti tehtiin 2 tuntia ja 44 minuuttia sitten, kello 02.07 UTC
Ennuste voimassa 24. päivästä klo 03 UTC - 24. päivään klo 12 UTC
Tuuli 3 kn idästä/kaakosta
Näkyvyys 10 km tai enemmän
ei pilviä alle 1500 m:ssä eikä cumulonimbus-pilviä
Todennäköisyys 30% :
Ajoittain
24. päivästä klo 03 UTC - 24. päivään klo 08 UTC
Näkyvyys: 2500 m
utua, Matala sumu

TAF: EBAW 240207Z 2403/2412 11003KT CAVOK PROB30 TEMPO 2403/2408 2500 BR MIFG

Säähavainnot ja -ennusteet yli 4000 lentoasemalta (METAR- ja TAF-raportit).

Käytössä olevat sääasemat on merkitty karttaan keltaisilla ja punaisilla pisteillä.

Aseta hiiri pisteen päälle nähdäksesi sääaseman nimen.

Klikkaa sitten nähdäksesi säähavainnot ja -ennusteet.

Kartan vaihtaminen: klikkaa mustalla rastilla varustettuja vihreitä pisteitä, niin voit zoomata sisään; viivalla varustettua vihreää pistettä, niin voit zoomata ulos tai vihreitä nuolia, niin pääset viereisille kartoille.


METAR-TAF: